Time;durP1;ratioP1;P1;durP2;ratioP2;P2;SDS_P1;SDS_P2;PMS_P1;PMS_P2;Temp;Humidity;BMP_temperature;BMP_pressure;BME280_temperature;BME280_humidity;BME280_pressure;Samples;Min_cycle;Max_cycle;Signal;HPM_P1;HPM_P2
2023/01/05 00:01:47;;;;;;;43.40;7.10;;;;;;;16.46;62.46;101450.53;5011903;28;20090;-72
2023/01/05 00:04:13;;;;;;;38.65;4.78;;;;;;;16.89;60.99;101443.53;5011690;28;20042;-72
2023/01/05 00:06:39;;;;;;;39.17;5.85;;;;;;;16.38;63.06;101459.09;5011517;28;20046;-70
2023/01/05 00:09:06;;;;;;;28.08;5.47;;;;;;;16.47;62.17;101452.16;5011776;28;20034;-71
2023/01/05 00:22:40;;;;;;;41.15;6.60;;;;;;;17.14;60.78;101443.88;5011605;28;20105;-69
2023/01/05 00:25:09;;;;;;;32.80;5.65;;;;;;;16.55;61.43;101450.94;5011423;28;20128;-71
2023/01/05 00:27:35;;;;;;;37.20;5.57;;;;;;;17.36;59.33;101456.34;5011268;28;20034;-71
2023/01/05 00:30:02;;;;;;;37.08;5.93;;;;;;;17.18;60.05;101453.13;5011598;28;20100;-71
2023/01/05 00:32:28;;;;;;;39.35;6.82;;;;;;;17.04;60.45;101462.75;5011221;28;20026;-70
2023/01/05 00:34:54;;;;;;;34.50;5.82;;;;;;;17.84;58.86;101447.38;5011541;28;20041;-70
2023/01/05 00:37:22;;;;;;;42.75;8.55;;;;;;;16.79;61.42;101459.69;5011475;28;20084;-71
2023/01/05 00:39:47;;;;;;;34.83;6.53;;;;;;;16.59;61.04;101452.91;5011502;28;20066;-70
2023/01/05 00:42:13;;;;;;;38.33;7.80;;;;;;;17.05;60.28;101464.41;5011213;28;20057;-70
2023/01/05 00:44:38;;;;;;;35.30;5.72;;;;;;;16.49;62.09;101468.25;4993734;28;20038;-72
2023/01/05 00:47:03;;;;;;;53.30;6.55;;;;;;;17.21;59.95;101458.91;5012210;28;20498;-71
2023/01/05 00:49:29;;;;;;;45.63;7.03;;;;;;;17.83;57.98;101462.03;5011064;28;20041;-69
2023/01/05 00:51:54;;;;;;;31.40;5.22;;;;;;;16.55;61.94;101467.22;4994970;28;20034;-70
2023/01/05 00:54:23;;;;;;;29.27;5.43;;;;;;;16.97;59.75;101471.09;5011319;28;20042;-71
2023/01/05 00:56:48;;;;;;;47.00;6.05;;;;;;;17.47;58.00;101451.88;5011994;28;20064;-70
2023/01/05 00:59:14;;;;;;;40.28;4.80;;;;;;;17.19;58.10;101454.78;5014818;28;20591;-71
2023/01/05 01:01:40;;;;;;;34.15;4.88;;;;;;;16.92;60.05;101468.31;5013214;28;20399;-70
2023/01/05 01:04:06;;;;;;;36.50;6.97;;;;;;;16.68;59.95;101478.59;4993567;28;20121;-71
2023/01/05 01:06:31;;;;;;;27.85;6.15;;;;;;;17.33;59.18;101473.19;4977882;28;20049;-71
2023/01/05 01:08:57;;;;;;;39.38;6.72;;;;;;;17.33;58.44;101466.91;4995291;28;20050;-71
2023/01/05 01:11:23;;;;;;;27.52;5.53;;;;;;;16.69;59.94;101498.38;4993967;28;20040;-71
2023/01/05 01:13:48;;;;;;;43.28;6.65;;;;;;;16.93;59.02;101475.38;5002176;28;20513;-70
2023/01/05 01:16:14;;;;;;;32.40;5.70;;;;;;;17.49;58.37;101475.00;5014491;28;20061;-70
2023/01/05 01:18:40;;;;;;;33.30;6.78;;;;;;;16.99;59.37;101485.25;5014560;28;20045;-72
2023/01/05 01:21:07;;;;;;;31.17;7.07;;;;;;;17.31;58.65;101491.63;5014741;28;20038;-71
2023/01/05 01:23:33;;;;;;;49.67;6.72;;;;;;;16.32;61.27;101479.06;5014474;28;20030;-70
2023/01/05 01:26:02;;;;;;;31.50;5.25;;;;;;;16.87;59.46;101489.97;4997282;28;20034;-71
2023/01/05 01:28:28;;;;;;;37.47;6.38;;;;;;;17.27;57.08;101493.22;5014404;28;20398;-71
2023/01/05 01:30:53;;;;;;;35.45;4.97;;;;;;;17.87;56.60;101497.69;5014550;28;20041;-71
2023/01/05 01:33:19;;;;;;;36.75;5.72;;;;;;;17.68;56.46;101499.13;5014280;28;20046;-71
2023/01/05 01:35:44;;;;;;;31.88;7.07;;;;;;;16.40;60.45;101499.53;5012612;28;20092;-71
2023/01/05 01:38:09;;;;;;;37.47;6.22;;;;;;;16.95;59.27;101497.66;5014815;28;20537;-73
2023/01/05 01:40:43;;;;;;;40.35;5.90;;;;;;;17.37;57.91;101508.81;5014130;28;20076;-71
2023/01/05 01:43:38;;;;;;;34.25;6.70;;;;;;;17.95;56.43;101505.38;5014130;28;20097;-70
2023/01/05 01:46:04;;;;;;;40.63;6.45;;;;;;;17.59;57.49;101506.09;5014153;28;20100;-70
2023/01/05 01:48:50;;;;;;;48.55;8.13;;;;;;;17.25;58.32;101513.53;5015725;28;20034;-72
2023/01/05 01:51:43;;;;;;;35.53;6.07;;;;;;;17.44;57.92;101501.28;5014201;28;20050;-71
2023/01/05 01:54:13;;;;;;;36.40;6.20;;;;;;;17.68;56.93;101513.53;5028051;28;20116;-69
2023/01/05 01:56:44;;;;;;;28.27;5.82;;;;;;;16.86;59.04;101525.50;5033965;28;20041;-71
2023/01/05 01:59:10;;;;;;;44.13;6.85;;;;;;;17.25;57.52;101522.53;5034148;28;20055;-73
2023/01/05 02:01:36;;;;;;;37.90;5.32;;;;;;;17.40;57.99;101522.69;5034304;28;20057;-70
2023/01/05 02:04:03;;;;;;;32.35;4.78;;;;;;;17.15;57.98;101518.84;5014740;28;20042;-69
2023/01/05 02:06:29;;;;;;;30.55;6.20;;;;;;;17.14;58.91;101525.38;5012782;28;20129;-70
2023/01/05 02:08:55;;;;;;;27.27;5.63;;;;;;;16.74;59.00;101533.75;5013372;28;20117;-71
2023/01/05 02:11:26;;;;;;;28.10;6.85;;;;;;;17.39;57.61;101529.19;5013770;28;20034;-70
2023/01/05 02:13:54;;;;;;;29.42;5.78;;;;;;;17.29;57.72;101539.97;5014202;28;20450;-68
2023/01/05 02:16:48;;;;;;;29.73;4.30;;;;;;;17.25;57.89;101538.00;5013577;28;20054;-72
2023/01/05 02:19:51;;;;;;;29.73;5.15;;;;;;;17.30;57.83;101533.44;5013313;28;20072;-71
2023/01/05 02:22:54;;;;;;;33.10;5.75;;;;;;;17.51;56.87;101538.06;5013268;28;20502;-71
2023/01/05 02:25:44;;;;;;;41.83;5.38;;;;;;;17.59;57.16;101534.09;5013237;28;20054;-71
2023/01/05 02:28:31;;;;;;;35.45;4.85;;;;;;;17.03;58.14;101551.56;5013544;28;20056;-69
2023/01/05 02:31:32;;;;;;;26.17;4.07;;;;;;;17.22;58.25;101546.63;5013330;28;20030;-70
2023/01/05 02:34:06;;;;;;;39.65;6.32;;;;;;;17.31;57.61;101540.53;4971476;28;20424;-70
2023/01/05 02:36:59;;;;;;;27.80;4.90;;;;;;;17.28;57.55;101540.19;4970057;28;20050;-71
2023/01/05 02:39:35;;;;;;;31.95;5.45;;;;;;;16.78;59.60;101543.03;4952139;29;20039;-70
2023/01/05 02:42:09;;;;;;;35.38;5.18;;;;;;;17.14;58.88;101544.38;4952072;29;20611;-71
2023/01/05 02:44:34;;;;;;;33.92;5.15;;;;;;;17.01;58.85;101544.72;4951853;29;20036;-71
2023/01/05 02:47:04;;;;;;;31.92;4.97;;;;;;;16.78;59.72;101542.22;4954144;28;20042;-71
2023/01/05 02:49:33;;;;;;;36.72;6.05;;;;;;;17.72;56.84;101547.28;4971088;28;20047;-69
2023/01/05 02:52:01;;;;;;;39.92;6.75;;;;;;;17.36;58.27;101547.91;4971110;28;20090;-71
2023/01/05 02:54:33;;;;;;;32.72;5.22;;;;;;;17.47;56.94;101566.00;4971325;28;20549;-70
2023/01/05 02:57:45;;;;;;;25.33;4.28;;;;;;;16.37;60.72;101554.28;4971231;28;20134;-70
2023/01/05 03:00:10;;;;;;;33.47;5.32;;;;;;;16.92;60.04;101549.78;4971401;28;20126;-70
2023/01/05 03:02:38;;;;;;;35.03;4.93;;;;;;;17.25;59.56;101555.13;4964460;28;20531;-69
2023/01/05 03:05:09;;;;;;;33.53;5.47;;;;;;;17.57;58.78;101554.47;4952002;28;20115;-70
2023/01/05 03:07:36;;;;;;;;;;;;;;;17.68;58.07;101548.06;4952445;29;20047;-70
2023/01/05 03:13:39;;;;;;;30.38;5.15;;;;;;;17.70;57.78;101544.00;4968416;28;20293;-72
2023/01/05 03:15:40;;;;;;;36.13;5.45;;;;;;;16.39;62.54;101547.53;4992870;28;20046;-71
2023/01/05 03:18:12;;;;;;;41.40;4.93;;;;;;;16.89;61.63;101539.41;4992833;28;20534;-71
2023/01/05 03:20:42;;;;;;;31.00;4.88;;;;;;;17.08;60.04;101545.38;5008384;28;20069;-71
2023/01/05 03:37:56;;;;;;;39.83;8.15;;;;;;;17.32;58.94;101547.59;4932146;29;20058;-71
2023/01/05 03:40:27;;;;;;;31.95;4.75;;;;;;;16.93;59.81;101553.28;4935483;28;20043;-71
2023/01/05 03:42:54;;;;;;;32.45;5.60;;;;;;;17.51;58.64;101564.44;4950579;28;20457;-72
2023/01/05 03:45:21;;;;;;;44.80;5.68;;;;;;;17.76;58.03;101563.91;4950563;28;20129;-70
2023/01/05 03:47:48;;;;;;;34.78;5.88;;;;;;;17.49;59.08;101559.25;4950498;28;20047;-70
2023/01/05 03:50:13;;;;;;;38.60;8.70;;;;;;;16.77;60.77;101560.38;4950478;28;20035;-71
2023/01/05 03:52:39;;;;;;;30.90;4.97;;;;;;;17.46;58.57;101565.16;4950627;29;20475;-70
2023/01/05 03:55:04;;;;;;;47.30;6.00;;;;;;;16.90;60.55;101583.66;4932013;28;20051;-71
2023/01/05 03:57:30;;;;;;;38.05;6.97;;;;;;;17.68;58.15;101565.19;4931200;29;20240;-70
2023/01/05 03:59:55;;;;;;;35.75;6.10;;;;;;;17.89;57.80;101577.09;4931313;29;20052;-71
2023/01/05 04:02:20;;;;;;;29.73;6.53;;;;;;;17.45;59.43;101574.38;4931708;29;20043;-71
2023/01/05 04:04:46;;;;;;;40.65;5.50;;;;;;;17.60;57.69;101578.41;4931829;29;20520;-72
2023/01/05 04:07:11;;;;;;;29.35;4.95;;;;;;;17.13;59.95;101570.72;4931248;28;20047;-70
2023/01/05 04:09:37;;;;;;;33.08;5.95;;;;;;;17.27;60.02;101574.72;4931641;28;20119;-70
2023/01/05 04:12:02;;;;;;;32.88;5.63;;;;;;;17.08;60.18;101570.63;4931655;28;20516;-72
2023/01/05 04:14:27;;;;;;;44.10;5.90;;;;;;;18.06;56.92;101573.22;4967055;28;20045;-70
2023/01/05 04:16:53;;;;;;;35.67;5.93;;;;;;;17.14;59.83;101572.34;5008364;28;20482;-70
2023/01/05 04:19:18;;;;;;;35.42;5.68;;;;;;;17.31;59.39;101592.16;5011540;28;20030;-72
2023/01/05 04:21:43;;;;;;;30.40;6.22;;;;;;;17.05;60.07;101586.59;5011226;28;20053;-71
2023/01/05 04:24:10;;;;;;;30.08;5.43;;;;;;;17.08;59.18;101583.41;5011470;28;20045;-70
2023/01/05 04:26:36;;;;;;;30.02;5.63;;;;;;;17.67;58.31;101585.28;5011634;28;20076;-71
2023/01/05 04:29:03;;;;;;;27.25;4.90;;;;;;;16.64;61.18;101587.88;5012185;28;20033;-71
2023/01/05 04:31:28;;;;;;;31.95;7.82;;;;;;;17.26;58.94;101588.53;5013349;28;20069;-70
2023/01/05 04:33:54;;;;;;;38.33;5.45;;;;;;;17.22;59.33;101592.81;5015387;28;20034;-70
2023/01/05 04:36:19;;;;;;;37.90;5.57;;;;;;;17.55;58.85;101590.06;5031762;28;20441;-70
2023/01/05 04:38:44;;;;;;;38.47;6.22;;;;;;;17.54;57.97;101599.25;5015153;28;20050;-71
2023/01/05 04:41:10;;;;;;;36.88;4.85;;;;;;;17.82;57.34;101600.97;5029604;28;20069;-70
2023/01/05 04:43:35;;;;;;;38.10;5.07;;;;;;;17.28;58.75;101602.66;5015772;28;20022;-73
2023/01/05 04:46:01;;;;;;;42.97;6.85;;;;;;;17.72;57.43;101609.81;5015408;28;20100;-72
2023/01/05 04:48:26;;;;;;;31.02;4.82;;;;;;;17.42;58.40;101606.69;5015192;28;20034;-71
2023/01/05 04:50:53;;;;;;;34.88;5.43;;;;;;;17.11;59.58;101610.88;5015436;28;20501;-70
2023/01/05 04:53:18;;;;;;;36.53;5.45;;;;;;;17.77;57.16;101609.06;5015041;28;20067;-72
2023/01/05 04:55:45;;;;;;;39.35;6.95;;;;;;;17.07;59.34;101603.47;5015667;28;20120;-70
2023/01/05 04:58:10;;;;;;;34.78;5.68;;;;;;;17.45;57.84;101628.72;5013426;28;20042;-72
2023/01/05 05:00:36;;;;;;;30.20;5.00;;;;;;;17.64;57.21;101604.00;5015373;28;20038;-71
2023/01/05 05:03:01;;;;;;;36.40;7.50;;;;;;;17.46;58.60;101614.09;5012944;28;20034;-71
2023/01/05 05:05:27;;;;;;;41.08;6.68;;;;;;;17.69;57.97;101612.22;5014198;28;20532;-72
2023/01/05 05:07:52;;;;;;;42.10;5.65;;;;;;;17.39;59.68;101621.56;5015137;28;20026;-71
2023/01/05 05:10:18;;;;;;;34.88;6.40;;;;;;;17.84;58.86;101615.13;5014483;28;20038;-70
2023/01/05 05:12:43;;;;;;;28.52;5.47;;;;;;;17.17;60.42;101617.19;5014354;28;20438;-72
2023/01/05 05:15:09;;;;;;;32.13;4.78;;;;;;;16.71;62.42;101625.72;5019217;28;20045;-70
2023/01/05 05:17:35;;;;;;;23.02;4.50;;;;;;;16.46;63.35;101639.63;4996787;28;20034;-71
2023/01/05 05:20:00;;;;;;;36.65;4.75;;;;;;;16.78;63.44;101642.66;5015326;28;20092;-70
2023/01/05 05:22:27;;;;;;;41.03;6.85;;;;;;;17.23;61.25;101644.19;5014762;28;20030;-70
2023/01/05 05:24:52;;;;;;;42.22;6.45;;;;;;;17.62;60.05;101644.19;5015004;28;20046;-70
2023/01/05 05:27:18;;;;;;;30.45;4.60;;;;;;;17.09;61.59;101636.63;5014510;28;20069;-70
2023/01/05 05:29:43;;;;;;;40.00;6.70;;;;;;;17.28;60.70;101646.97;5015075;28;20038;-71
2023/01/05 05:32:08;;;;;;;33.25;5.13;;;;;;;17.39;59.84;101647.94;5015193;28;20028;-71
2023/01/05 05:34:34;;;;;;;28.23;5.70;;;;;;;17.00;60.84;101657.94;4994523;28;20532;-70
2023/01/05 05:36:59;;;;;;;36.97;6.63;;;;;;;17.32;60.44;101658.16;4994576;28;20030;-70
2023/01/05 05:39:25;;;;;;;35.25;7.03;;;;;;;17.07;60.80;101658.59;4994878;28;20056;-71
2023/01/05 05:41:50;;;;;;;42.42;6.32;;;;;;;17.20;59.77;101669.13;4976742;28;20589;-71
2023/01/05 05:44:15;;;;;;;37.63;6.47;;;;;;;16.83;61.83;101675.28;4976675;28;20560;-71
2023/01/05 05:46:41;;;;;;;29.17;4.88;;;;;;;17.11;60.66;101669.78;4995221;28;20375;-71
2023/01/05 05:49:07;;;;;;;34.75;5.07;;;;;;;18.14;57.75;101678.84;4976852;28;20419;-70
2023/01/05 05:51:33;;;;;;;39.58;5.55;;;;;;;16.66;61.66;101670.69;4994223;28;20566;-71
2023/01/05 05:53:58;;;;;;;31.05;4.78;;;;;;;17.01;60.64;101675.91;4994253;28;20062;-70
2023/01/05 05:56:24;;;;;;;31.85;6.50;;;;;;;17.49;59.38;101676.09;4994110;28;20368;-69
2023/01/05 05:58:49;;;;;;;31.73;5.68;;;;;;;17.01;60.09;101669.63;4977345;28;20045;-71
2023/01/05 06:01:15;;;;;;;34.65;5.32;;;;;;;17.44;59.95;101680.63;4994183;28;20042;-71
2023/01/05 06:03:40;;;;;;;30.25;5.05;;;;;;;16.80;60.46;101682.06;4994057;28;20117;-69
2023/01/05 06:06:06;;;;;;;28.63;3.95;;;;;;;17.68;58.21;101676.66;4994160;28;20038;-71
2023/01/05 06:08:31;;;;;;;33.38;4.95;;;;;;;17.11;60.44;101684.22;4994403;28;20037;-70
2023/01/05 06:10:57;;;;;;;34.38;5.40;;;;;;;17.48;59.26;101681.75;4994938;28;20030;-69
2023/01/05 06:13:23;;;;;;;31.77;4.90;;;;;;;17.94;56.93;101685.97;4993992;28;20042;-70
2023/01/05 06:15:49;;;;;;;37.10;5.03;;;;;;;17.71;58.08;101692.44;4993913;28;20035;-70
2023/01/05 06:18:15;;;;;;;34.75;5.53;;;;;;;17.75;58.29;101695.50;4993956;28;20069;-69
2023/01/05 06:20:41;;;;;;;36.50;7.50;;;;;;;17.49;58.85;101694.31;4994018;28;20038;-71
2023/01/05 06:23:07;;;;;;;36.42;5.22;;;;;;;17.86;57.58;101695.38;4994281;28;20034;-71
2023/01/05 06:25:33;;;;;;;30.98;5.70;;;;;;;17.25;58.88;101701.81;4993885;28;20046;-70
2023/01/05 06:27:58;;;;;;;37.33;7.10;;;;;;;17.09;59.94;101707.25;5007090;28;20042;-71
2023/01/05 06:30:24;;;;;;;34.75;6.05;;;;;;;17.39;59.06;101713.97;4996870;28;20487;-71
2023/01/05 06:32:50;;;;;;;44.30;4.97;;;;;;;17.54;58.64;101722.41;4984786;28;20038;-70
2023/01/05 06:35:15;;;;;;;32.60;5.18;;;;;;;16.90;60.34;101722.13;4990703;28;20046;-70
2023/01/05 06:37:41;;;;;;;28.15;4.85;;;;;;;16.79;60.55;101718.41;4993599;28;20069;-71
2023/01/05 06:40:08;;;;;;;41.88;4.90;;;;;;;18.13;56.47;101722.63;4993213;28;20043;-71
2023/01/05 06:42:34;;;;;;;33.33;4.45;;;;;;;17.71;57.90;101722.34;4994070;28;20046;-71
2023/01/05 06:44:59;;;;;;;34.90;4.45;;;;;;;17.95;57.57;101736.53;4993615;28;20049;-72
2023/01/05 06:47:24;;;;;;;26.15;5.70;;;;;;;18.03;56.50;101723.34;4998771;28;20030;-71
2023/01/05 06:49:50;;;;;;;29.50;4.43;;;;;;;16.48;61.66;101732.44;5013912;28;20042;-73
2023/01/05 06:52:15;;;;;;;34.72;4.70;;;;;;;18.28;56.67;101739.97;4997302;28;20042;-71
2023/01/05 06:54:41;;;;;;;40.85;4.57;;;;;;;17.83;57.33;101743.97;4993274;28;20065;-72
2023/01/05 06:57:06;;;;;;;39.88;6.47;;;;;;;17.76;57.52;101751.50;4993586;28;20040;-71
2023/01/05 06:59:32;;;;;;;32.80;5.50;;;;;;;17.95;57.01;101740.09;4993146;28;20494;-70
2023/01/05 07:01:57;;;;;;;44.30;5.80;;;;;;;18.08;56.76;101747.06;4993812;28;20143;-72
2023/01/05 07:04:23;;;;;;;30.67;7.18;;;;;;;17.43;59.45;101749.63;4993213;28;20042;-71
2023/01/05 07:06:48;;;;;;;24.35;5.28;;;;;;;17.28;59.79;101752.91;4993323;28;20045;-70
2023/01/05 07:09:14;;;;;;;28.60;4.82;;;;;;;17.82;57.65;101750.50;4993028;28;20030;-71
2023/01/05 07:11:39;;;;;;;52.00;5.82;;;;;;;17.64;59.22;101756.22;4993283;28;20121;-70
2023/01/05 07:14:06;;;;;;;27.63;4.53;;;;;;;18.12;56.82;101765.31;4993622;28;20486;-72
2023/01/05 07:16:31;;;;;;;43.72;7.82;;;;;;;17.89;57.47;101764.72;4998185;28;20057;-73
2023/01/05 07:18:56;;;;;;;32.33;5.75;;;;;;;17.36;59.39;101767.97;5012553;28;20073;-71
2023/01/05 07:21:23;;;;;;;34.47;5.53;;;;;;;17.40;59.59;101769.13;5012419;28;20445;-72
2023/01/05 07:23:48;;;;;;;33.92;5.53;;;;;;;17.31;59.93;101778.78;5009873;28;20033;-71
2023/01/05 07:26:13;;;;;;;39.13;4.78;;;;;;;17.09;60.26;101770.53;5012972;28;20113;-72
2023/01/05 07:28:39;;;;;;;34.40;5.60;;;;;;;17.41;59.48;101778.94;5012367;28;20113;-72
2023/01/05 07:31:06;;;;;;;38.78;5.70;;;;;;;18.10;57.89;101777.56;5012273;28;20049;-71
2023/01/05 07:33:31;;;;;;;42.83;5.82;;;;;;;17.45;58.83;101785.53;5012062;28;20046;-72
2023/01/05 07:36:00;;;;;;;38.65;7.75;;;;;;;18.00;58.41;101780.13;5012225;28;20042;-71
2023/01/05 07:38:26;;;;;;;36.53;6.22;;;;;;;17.78;58.60;101782.00;5012037;28;20030;-71
2023/01/05 07:40:51;;;;;;;31.38;6.25;;;;;;;17.37;58.99;101783.22;5012899;28;20144;-72
2023/01/05 07:43:17;;;;;;;36.78;4.97;;;;;;;16.93;60.98;101784.91;5012476;28;20490;-72
2023/01/05 07:45:42;;;;;;;36.13;7.63;;;;;;;16.64;62.07;101775.97;5012580;28;20082;-74
2023/01/05 07:48:08;;;;;;;40.45;5.03;;;;;;;16.38;62.62;101772.94;5005519;28;20593;-73
2023/01/05 07:50:33;;;;;;;49.30;6.30;;;;;;;17.15;60.58;101779.59;5021031;28;20446;-72
2023/01/05 07:52:59;;;;;;;36.78;5.68;;;;;;;17.61;59.24;101781.19;5012337;28;20076;-72
2023/01/05 07:55:24;;;;;;;39.15;6.65;;;;;;;17.07;60.80;101788.97;5011871;28;20038;-72
2023/01/05 07:57:50;;;;;;;36.30;5.97;;;;;;;17.04;61.29;101785.94;5012082;28;20041;-72
2023/01/05 08:00:15;;;;;;;40.33;6.43;;;;;;;17.12;59.77;101805.34;5011942;28;20040;-71
2023/01/05 08:02:41;;;;;;;33.97;5.68;;;;;;;16.62;62.62;101815.25;5011093;28;20483;-70
2023/01/05 08:05:07;;;;;;;36.97;6.18;;;;;;;17.04;61.59;101810.38;5012651;28;20038;-72
2023/01/05 08:07:34;;;;;;;47.05;6.13;;;;;;;17.15;61.07;101814.91;5018361;28;20351;-73
2023/01/05 08:15:28;;;;;;;34.53;4.75;;;;;;;17.27;60.19;101821.09;5017975;28;20421;-72
2023/01/05 08:17:53;;;;;;;33.08;6.95;;;;;;;16.61;62.44;101833.44;5018160;28;20121;-72
2023/01/05 08:20:18;;;;;;;26.90;4.40;;;;;;;17.29;59.68;101827.94;5017718;28;20072;-72
2023/01/05 08:22:52;;;;;;;35.30;5.20;;;;;;;16.55;61.80;101834.38;5018471;28;20381;-70
2023/01/05 08:25:18;;;;;;;28.55;5.07;;;;;;;16.71;61.47;101840.16;5018537;28;20036;-73
2023/01/05 08:27:44;;;;;;;28.38;4.82;;;;;;;17.75;58.58;101850.47;5002137;28;20029;-72
2023/01/05 08:30:11;;;;;;;28.98;5.55;;;;;;;17.36;59.51;101844.06;5018034;28;20108;-73
2023/01/05 08:32:37;;;;;;;34.47;4.68;;;;;;;17.57;59.25;101856.97;5017886;28;20068;-71
2023/01/05 08:35:02;;;;;;;40.80;5.40;;;;;;;17.39;58.57;101854.47;5000406;28;20062;-72
2023/01/05 08:37:28;;;;;;;32.97;3.95;;;;;;;17.62;58.83;101851.63;5017396;28;20446;-71
2023/01/05 08:39:53;;;;;;;33.25;5.22;;;;;;;18.01;57.67;101858.75;5017640;28;20068;-72
2023/01/05 08:42:19;;;;;;;34.80;6.50;;;;;;;18.27;56.64;101871.66;5017847;28;20509;-71
2023/01/05 08:44:44;;;;;;;34.78;6.80;;;;;;;17.28;59.44;101877.91;5017463;28;20382;-71
2023/01/05 08:47:09;;;;;;;23.17;4.70;;;;;;;17.42;58.65;101865.66;5017857;28;20041;-72
2023/01/05 08:49:35;;;;;;;30.20;4.80;;;;;;;17.95;56.96;101869.81;5017788;28;20435;-71
2023/01/05 08:52:03;;;;;;;40.45;4.45;;;;;;;17.22;59.05;101872.59;5016147;28;20084;-71
2023/01/05 08:54:28;;;;;;;32.45;4.97;;;;;;;17.03;59.73;101872.00;5017323;28;20505;-72
2023/01/05 08:56:54;;;;;;;24.92;3.80;;;;;;;16.96;60.47;101878.66;5018183;28;20033;-71
2023/01/05 08:59:19;;;;;;;19.23;3.22;;;;;;;17.15;60.13;101889.06;5000281;28;20389;-72
2023/01/05 09:01:44;;;;;;;21.95;5.25;;;;;;;17.81;57.77;101890.28;5018306;28;20034;-71
2023/01/05 09:04:10;;;;;;;35.88;6.05;;;;;;;17.52;58.70;101884.06;5017755;28;20033;-72
2023/01/05 09:06:35;;;;;;;16.55;3.45;;;;;;;17.65;57.73;101897.31;5017773;28;20501;-71
2023/01/05 09:09:02;;;;;;;36.88;5.20;;;;;;;17.98;56.86;101905.50;5017769;28;20092;-72
2023/01/05 09:11:27;;;;;;;26.08;4.70;;;;;;;17.79;57.72;101903.28;5017768;28;20037;-73
2023/01/05 09:13:55;;;;;;;26.17;3.80;;;;;;;17.47;58.69;101905.69;5000587;28;20026;-74
2023/01/05 09:16:23;;;;;;;31.63;4.15;;;;;;;17.83;58.13;101913.41;5012236;28;20042;-71
2023/01/05 09:18:49;;;;;;;26.15;4.20;;;;;;;17.35;59.07;101916.63;4999581;28;20398;-72
2023/01/05 09:21:15;;;;;;;22.98;4.78;;;;;;;18.34;56.02;101918.56;5004250;28;20042;-72
2023/01/05 09:23:41;;;;;;;34.78;4.95;;;;;;;17.89;58.09;101917.03;4984998;28;20033;-72
2023/01/05 09:26:09;;;;;;;27.48;5.75;;;;;;;17.36;58.94;101918.25;5012028;28;20044;-70
2023/01/05 09:28:35;;;;;;;21.00;4.65;;;;;;;17.94;58.24;101925.28;4996405;28;20504;-71
2023/01/05 09:31:08;;;;;;;27.13;4.65;;;;;;;17.21;59.74;101923.41;5013739;28;20097;-73
2023/01/05 09:33:34;;;;;;;28.63;4.95;;;;;;;17.93;57.98;101935.34;5014004;28;20057;-74
2023/01/05 09:35:59;;;;;;;32.50;4.95;;;;;;;17.08;60.00;101939.19;4995834;28;20170;-73
2023/01/05 09:38:25;;;;;;;33.88;4.22;;;;;;;17.60;58.21;101943.47;5007961;28;20049;-73
2023/01/05 09:40:54;;;;;;;26.73;5.05;;;;;;;17.94;57.53;101945.16;5003880;28;20030;-72
2023/01/05 09:43:27;;;;;;;29.58;4.43;;;;;;;16.98;60.04;101955.25;5004669;28;20088;-72
2023/01/05 09:45:54;;;;;;;31.80;4.93;;;;;;;17.17;60.30;101954.03;5001785;28;20125;-71
2023/01/05 09:48:21;;;;;;;17.63;4.18;;;;;;;17.41;59.31;101963.75;5000921;28;20034;-73
2023/01/05 09:50:48;;;;;;;39.08;7.22;;;;;;;18.03;57.49;101957.25;5001617;28;20045;-71
2023/01/05 09:53:18;;;;;;;36.45;5.07;;;;;;;17.31;58.41;101961.66;5002856;28;20026;-72
2023/01/05 09:55:47;;;;;;;35.08;4.13;;;;;;;17.15;59.54;101954.25;5004810;28;20038;-72
2023/01/05 09:58:20;;;;;;;36.10;4.97;;;;;;;17.69;58.35;101957.50;5013659;28;20037;-73
2023/01/05 10:01:13;;;;;;;29.25;6.90;;;;;;;17.65;58.41;101969.91;5003145;28;20042;-73
2023/01/05 10:03:46;;;;;;;26.58;5.28;;;;;;;17.02;61.36;101965.38;5007451;28;20125;-73
2023/01/05 10:06:13;;;;;;;28.30;5.25;;;;;;;17.71;59.13;101969.75;5008539;28;20041;-72
2023/01/05 10:08:47;;;;;;;39.40;6.65;;;;;;;18.47;56.49;101968.31;4979733;28;20107;-72
2023/01/05 10:14:23;;;;;;;30.35;4.93;;;;;;;17.90;57.43;101973.09;5004399;28;20526;-72
2023/01/05 10:16:48;;;;;;;22.02;4.70;;;;;;;17.59;58.24;101968.19;5001322;28;20482;-71
2023/01/05 10:19:17;;;;;;;30.23;5.68;;;;;;;18.37;57.33;101977.13;5012770;28;20026;-72
2023/01/05 10:21:57;;;;;;;28.83;4.82;;;;;;;17.60;58.76;101977.97;5012682;28;20508;-72
2023/01/05 10:24:56;;;;;;;26.10;5.68;;;;;;;17.53;58.43;101984.38;5010107;28;20041;-72
2023/01/05 10:27:56;;;;;;;30.60;5.43;;;;;;;17.65;59.10;101983.50;5011218;28;20042;-74
2023/01/05 10:30:25;;;;;;;28.05;4.55;;;;;;;18.08;57.95;101989.19;5010629;28;20037;-73
2023/01/05 10:33:00;;;;;;;25.38;4.22;;;;;;;17.12;59.99;101981.91;5013416;28;20044;-72
2023/01/05 10:35:45;;;;;;;30.67;5.15;;;;;;;17.45;59.58;101987.44;5011488;28;20386;-73
2023/01/05 10:38:22;;;;;;;32.45;4.90;;;;;;;18.27;57.80;101990.56;5011603;28;20037;-72
2023/01/05 10:41:07;;;;;;;34.78;4.32;;;;;;;17.79;57.69;101982.16;5011872;28;20091;-71
2023/01/05 10:44:20;;;;;;;27.73;4.07;;;;;;;17.57;58.79;101994.78;5009925;28;20046;-72
2023/01/05 10:46:48;;;;;;;23.48;4.65;;;;;;;17.85;58.66;102002.88;5011960;28;20111;-72
2023/01/05 10:49:25;;;;;;;29.85;4.45;;;;;;;17.99;57.81;101999.63;5012132;28;20089;-72
2023/01/05 10:51:51;;;;;;;39.63;6.20;;;;;;;17.42;59.80;101995.25;5011764;28;20065;-73
2023/01/05 10:54:42;;;;;;;27.50;4.40;;;;;;;17.41;59.88;101988.19;5012660;28;20029;-73
2023/01/05 10:57:42;;;;;;;;;;;;;;;18.01;58.83;101996.66;5004753;28;20506;-74
2023/01/05 11:00:18;;;;;;;36.90;6.90;;;;;;;18.64;56.51;101993.59;4970355;28;19917;-72
2023/01/05 11:03:03;;;;;;;41.60;6.20;;;;;;;17.60;59.49;101992.38;4966262;28;20131;-72
2023/01/05 11:05:36;;;;;;;38.58;6.00;;;;;;;18.40;57.09;101990.22;4970239;28;20125;-72
2023/01/05 11:08:05;;;;;;;30.42;5.60;;;;;;;17.43;59.70;101988.78;4969568;28;20070;-72
2023/01/05 11:10:49;;;;;;;31.23;4.22;;;;;;;17.61;59.84;101996.75;4969185;28;20047;-71
2023/01/05 11:13:14;;;;;;;28.95;4.07;;;;;;;17.59;60.12;101998.06;4969870;28;20125;-72
2023/01/05 11:15:42;;;;;;;28.90;5.07;;;;;;;18.34;56.99;101992.03;4968875;28;20043;-71
2023/01/05 11:18:26;;;;;;;28.48;5.60;;;;;;;17.93;58.33;101989.72;4969662;28;20043;-70
2023/01/05 11:21:05;;;;;;;28.98;6.18;;;;;;;18.17;57.71;101993.94;4970827;28;20138;-72
2023/01/05 11:23:40;;;;;;;29.45;4.60;;;;;;;17.77;58.61;101993.25;4969034;28;20110;-71
2023/01/05 11:26:17;;;;;;;31.52;4.80;;;;;;;18.66;55.85;101991.44;4969064;28;20246;-72
2023/01/05 11:29:09;;;;;;;43.30;6.15;;;;;;;17.91;57.92;102000.03;4970196;28;20055;-71
2023/01/05 11:31:41;;;;;;;43.60;7.28;;;;;;;18.30;57.34;102001.78;4968480;28;20053;-71
2023/01/05 11:34:18;;;;;;;22.98;5.50;;;;;;;18.55;56.44;102004.13;4990145;28;20401;-71
2023/01/05 11:36:52;;;;;;;38.25;5.93;;;;;;;17.32;59.52;102001.31;5011569;28;20108;-72
2023/01/05 11:39:32;;;;;;;27.40;5.30;;;;;;;17.78;58.39;102004.94;5011705;28;20036;-72
2023/01/05 11:42:09;;;;;;;34.70;5.43;;;;;;;17.65;58.30;102011.50;5009429;28;20062;-71
2023/01/05 11:44:36;;;;;;;30.25;6.00;;;;;;;17.52;59.88;102006.38;5011543;28;20096;-71
2023/01/05 11:47:05;;;;;;;37.03;6.30;;;;;;;17.95;58.26;102000.34;5013854;28;20034;-72
2023/01/05 11:49:31;;;;;;;28.52;5.88;;;;;;;18.38;57.01;102005.97;5008947;28;20034;-71
2023/01/05 11:51:56;;;;;;;31.25;5.18;;;;;;;18.12;56.73;102006.66;5011160;28;20434;-73
2023/01/05 11:54:30;;;;;;;35.67;6.65;;;;;;;18.49;57.69;102001.56;5008745;28;20046;-72
2023/01/05 11:57:16;;;;;;;32.60;4.88;;;;;;;18.14;57.89;102004.50;5006277;28;20390;-72
2023/01/05 11:59:42;;;;;;;32.90;6.85;;;;;;;17.92;57.63;102012.56;5009946;28;20038;-71
2023/01/05 12:02:20;;;;;;;32.03;6.45;;;;;;;17.93;58.38;102003.31;5011366;28;20036;-73
2023/01/05 12:04:48;;;;;;;28.95;5.75;;;;;;;17.38;59.23;102004.97;4992577;28;20046;-71